sensor_id;sensor_type;location;lat;lon;timestamp;P1;durP1;ratioP1;P2;durP2;ratioP2
72422;SDS011;60413;55.658;37.498;2023-03-01T00:00:41;2.20;;;0.77;;
72422;SDS011;60413;55.658;37.498;2023-03-01T00:03:11;2.28;;;0.68;;
72422;SDS011;60413;55.658;37.498;2023-03-01T00:05:45;1.45;;;0.80;;
72422;SDS011;60413;55.658;37.498;2023-03-01T00:08:11;2.95;;;0.85;;
72422;SDS011;60413;55.658;37.498;2023-03-01T00:10:37;2.35;;;0.70;;
72422;SDS011;60413;55.658;37.498;2023-03-01T00:13:03;2.58;;;1.20;;
72422;SDS011;60413;55.658;37.498;2023-03-01T00:15:31;2.47;;;0.75;;
72422;SDS011;60413;55.658;37.498;2023-03-01T00:17:57;2.70;;;0.80;;
72422;SDS011;60413;55.658;37.498;2023-03-01T00:20:23;3.40;;;0.60;;
72422;SDS011;60413;55.658;37.498;2023-03-01T00:22:50;2.35;;;0.98;;
72422;SDS011;60413;55.658;37.498;2023-03-01T00:25:16;1.88;;;0.95;;
72422;SDS011;60413;55.658;37.498;2023-03-01T00:27:42;4.07;;;1.00;;
72422;SDS011;60413;55.658;37.498;2023-03-01T00:30:08;2.80;;;1.00;;
72422;SDS011;60413;55.658;37.498;2023-03-01T00:32:34;1.60;;;0.80;;
72422;SDS011;60413;55.658;37.498;2023-03-01T00:35:00;1.85;;;0.70;;
72422;SDS011;60413;55.658;37.498;2023-03-01T00:37:26;1.10;;;0.82;;
72422;SDS011;60413;55.658;37.498;2023-03-01T00:39:52;3.33;;;0.77;;
72422;SDS011;60413;55.658;37.498;2023-03-01T00:42:18;3.78;;;0.80;;
72422;SDS011;60413;55.658;37.498;2023-03-01T00:44:44;2.17;;;0.88;;
72422;SDS011;60413;55.658;37.498;2023-03-01T00:47:10;1.52;;;0.85;;
72422;SDS011;60413;55.658;37.498;2023-03-01T00:49:36;4.00;;;1.00;;
72422;SDS011;60413;55.658;37.498;2023-03-01T00:52:02;0.85;;;0.52;;
72422;SDS011;60413;55.658;37.498;2023-03-01T00:54:28;2.20;;;0.65;;
72422;SDS011;60413;55.658;37.498;2023-03-01T00:56:54;2.03;;;0.90;;
72422;SDS011;60413;55.658;37.498;2023-03-01T00:59:20;1.70;;;0.70;;
72422;SDS011;60413;55.658;37.498;2023-03-01T01:01:46;3.50;;;0.60;;
72422;SDS011;60413;55.658;37.498;2023-03-01T01:04:12;1.30;;;0.88;;
72422;SDS011;60413;55.658;37.498;2023-03-01T01:09:08;4.72;;;1.10;;
72422;SDS011;60413;55.658;37.498;2023-03-01T01:11:43;3.33;;;1.33;;
72422;SDS011;60413;55.658;37.498;2023-03-01T01:14:12;1.98;;;0.70;;
72422;SDS011;60413;55.658;37.498;2023-03-01T01:16:42;1.98;;;0.82;;
72422;SDS011;60413;55.658;37.498;2023-03-01T01:19:09;0.80;;;0.60;;
72422;SDS011;60413;55.658;37.498;2023-03-01T01:21:36;3.65;;;0.75;;
72422;SDS011;60413;55.658;37.498;2023-03-01T01:24:03;0.60;;;0.50;;
72422;SDS011;60413;55.658;37.498;2023-03-01T01:26:32;1.20;;;0.55;;
72422;SDS011;60413;55.658;37.498;2023-03-01T01:29:03;1.00;;;0.70;;
72422;SDS011;60413;55.658;37.498;2023-03-01T01:31:30;4.05;;;1.35;;
72422;SDS011;60413;55.658;37.498;2023-03-01T01:33:59;2.25;;;0.88;;
72422;SDS011;60413;55.658;37.498;2023-03-01T01:36:27;1.08;;;0.70;;
72422;SDS011;60413;55.658;37.498;2023-03-01T01:38:56;3.50;;;0.90;;
72422;SDS011;60413;55.658;37.498;2023-03-01T01:41:23;2.17;;;1.00;;
72422;SDS011;60413;55.658;37.498;2023-03-01T01:47:23;2.25;;;0.60;;
72422;SDS011;60413;55.658;37.498;2023-03-01T01:49:32;2.33;;;0.80;;
72422;SDS011;60413;55.658;37.498;2023-03-01T01:52:26;1.73;;;0.98;;
72422;SDS011;60413;55.658;37.498;2023-03-01T01:55:00;1.63;;;1.10;;
72422;SDS011;60413;55.658;37.498;2023-03-01T01:57:39;1.25;;;0.80;;
72422;SDS011;60413;55.658;37.498;2023-03-01T02:00:12;1.02;;;0.80;;
72422;SDS011;60413;55.658;37.498;2023-03-01T02:02:43;4.88;;;0.70;;
72422;SDS011;60413;55.658;37.498;2023-03-01T02:05:14;1.38;;;0.70;;
72422;SDS011;60413;55.658;37.498;2023-03-01T02:07:47;2.00;;;0.55;;
72422;SDS011;60413;55.658;37.498;2023-03-01T02:10:18;4.82;;;0.80;;
72422;SDS011;60413;55.658;37.498;2023-03-01T02:12:46;2.42;;;0.85;;
72422;SDS011;60413;55.658;37.498;2023-03-01T02:15:12;6.65;;;0.88;;
72422;SDS011;60413;55.658;37.498;2023-03-01T02:17:38;2.38;;;0.82;;
72422;SDS011;60413;55.658;37.498;2023-03-01T02:22:47;2.85;;;0.88;;
72422;SDS011;60413;55.658;37.498;2023-03-01T02:30:47;1.23;;;0.93;;
72422;SDS011;60413;55.658;37.498;2023-03-01T02:33:34;3.33;;;1.13;;
72422;SDS011;60413;55.658;37.498;2023-03-01T02:36:07;4.18;;;0.70;;
72422;SDS011;60413;55.658;37.498;2023-03-01T02:38:56;2.20;;;0.85;;
72422;SDS011;60413;55.658;37.498;2023-03-01T02:41:24;1.08;;;0.80;;
72422;SDS011;60413;55.658;37.498;2023-03-01T02:43:54;1.80;;;0.90;;
72422;SDS011;60413;55.658;37.498;2023-03-01T02:46:22;3.80;;;0.93;;
72422;SDS011;60413;55.658;37.498;2023-03-01T02:48:55;1.70;;;0.82;;
72422;SDS011;60413;55.658;37.498;2023-03-01T02:54:02;0.98;;;0.70;;
72422;SDS011;60413;55.658;37.498;2023-03-01T02:57:03;5.05;;;0.80;;
72422;SDS011;60413;55.658;37.498;2023-03-01T02:59:31;1.10;;;0.73;;
72422;SDS011;60413;55.658;37.498;2023-03-01T03:02:07;4.10;;;1.02;;
72422;SDS011;60413;55.658;37.498;2023-03-01T03:04:46;2.35;;;1.00;;
72422;SDS011;60413;55.658;37.498;2023-03-01T03:07:12;1.17;;;0.70;;
72422;SDS011;60413;55.658;37.498;2023-03-01T03:09:39;3.40;;;1.33;;
72422;SDS011;60413;55.658;37.498;2023-03-01T03:12:05;0.88;;;0.70;;
72422;SDS011;60413;55.658;37.498;2023-03-01T03:14:31;1.30;;;0.60;;
72422;SDS011;60413;55.658;37.498;2023-03-01T03:17:00;1.77;;;1.10;;
72422;SDS011;60413;55.658;37.498;2023-03-01T03:19:26;6.88;;;1.13;;
72422;SDS011;60413;55.658;37.498;2023-03-01T03:21:56;3.70;;;1.10;;
72422;SDS011;60413;55.658;37.498;2023-03-01T03:24:24;1.58;;;0.70;;
72422;SDS011;60413;55.658;37.498;2023-03-01T03:26:50;1.25;;;0.70;;
72422;SDS011;60413;55.658;37.498;2023-03-01T03:29:17;1.70;;;0.93;;
72422;SDS011;60413;55.658;37.498;2023-03-01T03:31:45;2.25;;;1.05;;
72422;SDS011;60413;55.658;37.498;2023-03-01T03:34:11;3.72;;;0.90;;
72422;SDS011;60413;55.658;37.498;2023-03-01T03:36:43;1.00;;;0.70;;
72422;SDS011;60413;55.658;37.498;2023-03-01T03:39:09;2.70;;;0.93;;
72422;SDS011;60413;55.658;37.498;2023-03-01T03:41:35;1.70;;;0.95;;
72422;SDS011;60413;55.658;37.498;2023-03-01T03:44:01;1.85;;;0.68;;
72422;SDS011;60413;55.658;37.498;2023-03-01T03:46:27;4.50;;;1.20;;
72422;SDS011;60413;55.658;37.498;2023-03-01T03:48:53;0.90;;;0.70;;
72422;SDS011;60413;55.658;37.498;2023-03-01T03:51:19;2.47;;;0.93;;
72422;SDS011;60413;55.658;37.498;2023-03-01T03:53:48;3.05;;;1.05;;
72422;SDS011;60413;55.658;37.498;2023-03-01T03:56:14;3.10;;;1.17;;
72422;SDS011;60413;55.658;37.498;2023-03-01T03:58:40;3.63;;;0.80;;
72422;SDS011;60413;55.658;37.498;2023-03-01T04:01:06;5.43;;;1.20;;
72422;SDS011;60413;55.658;37.498;2023-03-01T04:03:33;3.92;;;1.08;;
72422;SDS011;60413;55.658;37.498;2023-03-01T04:06:00;3.55;;;1.02;;
72422;SDS011;60413;55.658;37.498;2023-03-01T04:08:30;5.60;;;1.13;;
72422;SDS011;60413;55.658;37.498;2023-03-01T04:10:58;2.60;;;1.00;;
72422;SDS011;60413;55.658;37.498;2023-03-01T04:13:46;5.03;;;0.93;;
72422;SDS011;60413;55.658;37.498;2023-03-01T04:16:12;2.70;;;0.85;;
72422;SDS011;60413;55.658;37.498;2023-03-01T04:18:38;3.65;;;1.10;;
72422;SDS011;60413;55.658;37.498;2023-03-01T04:21:04;1.33;;;0.82;;
72422;SDS011;60413;55.658;37.498;2023-03-01T04:23:30;2.97;;;1.27;;
72422;SDS011;60413;55.658;37.498;2023-03-01T04:25:57;5.63;;;1.33;;
72422;SDS011;60413;55.658;37.498;2023-03-01T04:28:38;2.78;;;1.10;;
72422;SDS011;60413;55.658;37.498;2023-03-01T04:31:25;4.22;;;1.02;;
72422;SDS011;60413;55.658;37.498;2023-03-01T04:33:54;2.15;;;1.05;;
72422;SDS011;60413;55.658;37.498;2023-03-01T04:36:51;3.35;;;1.20;;
72422;SDS011;60413;55.658;37.498;2023-03-01T04:39:18;5.72;;;1.50;;
72422;SDS011;60413;55.658;37.498;2023-03-01T04:41:45;5.85;;;2.55;;
72422;SDS011;60413;55.658;37.498;2023-03-01T04:44:18;6.97;;;2.20;;
72422;SDS011;60413;55.658;37.498;2023-03-01T04:46:55;2.72;;;1.20;;
72422;SDS011;60413;55.658;37.498;2023-03-01T04:49:24;5.80;;;1.17;;
72422;SDS011;60413;55.658;37.498;2023-03-01T04:51:50;2.67;;;1.00;;
72422;SDS011;60413;55.658;37.498;2023-03-01T04:54:16;3.08;;;1.25;;
72422;SDS011;60413;55.658;37.498;2023-03-01T04:56:42;11.32;;;1.15;;
72422;SDS011;60413;55.658;37.498;2023-03-01T04:59:09;5.18;;;0.90;;
72422;SDS011;60413;55.658;37.498;2023-03-01T05:01:38;2.20;;;1.05;;
72422;SDS011;60413;55.658;37.498;2023-03-01T05:04:11;4.68;;;1.27;;
72422;SDS011;60413;55.658;37.498;2023-03-01T05:06:43;5.75;;;1.35;;
72422;SDS011;60413;55.658;37.498;2023-03-01T05:09:17;6.18;;;2.50;;
72422;SDS011;60413;55.658;37.498;2023-03-01T05:12:19;3.08;;;1.42;;
72422;SDS011;60413;55.658;37.498;2023-03-01T05:14:48;12.48;;;3.00;;
72422;SDS011;60413;55.658;37.498;2023-03-01T05:19:49;6.80;;;2.38;;
72422;SDS011;60413;55.658;37.498;2023-03-01T05:22:20;5.75;;;2.30;;
72422;SDS011;60413;55.658;37.498;2023-03-01T05:24:48;10.18;;;2.72;;
72422;SDS011;60413;55.658;37.498;2023-03-01T05:27:15;4.50;;;1.95;;
72422;SDS011;60413;55.658;37.498;2023-03-01T05:29:51;5.20;;;2.28;;
72422;SDS011;60413;55.658;37.498;2023-03-01T05:32:29;6.43;;;2.30;;
72422;SDS011;60413;55.658;37.498;2023-03-01T05:35:04;6.80;;;2.33;;
72422;SDS011;60413;55.658;37.498;2023-03-01T05:37:31;3.47;;;1.35;;
72422;SDS011;60413;55.658;37.498;2023-03-01T05:40:18;6.10;;;2.15;;
72422;SDS011;60413;55.658;37.498;2023-03-01T05:42:48;3.35;;;1.80;;
72422;SDS011;60413;55.658;37.498;2023-03-01T05:45:33;5.13;;;2.10;;
72422;SDS011;60413;55.658;37.498;2023-03-01T05:48:17;3.28;;;1.38;;
72422;SDS011;60413;55.658;37.498;2023-03-01T05:51:01;3.92;;;1.85;;
72422;SDS011;60413;55.658;37.498;2023-03-01T05:53:34;4.95;;;1.77;;
72422;SDS011;60413;55.658;37.498;2023-03-01T05:56:06;3.85;;;1.63;;
72422;SDS011;60413;55.658;37.498;2023-03-01T05:58:44;7.32;;;1.70;;
72422;SDS011;60413;55.658;37.498;2023-03-01T06:01:35;3.85;;;1.42;;
72422;SDS011;60413;55.658;37.498;2023-03-01T06:04:09;3.78;;;1.63;;
72422;SDS011;60413;55.658;37.498;2023-03-01T06:06:36;4.00;;;1.45;;
72422;SDS011;60413;55.658;37.498;2023-03-01T06:09:17;4.97;;;1.52;;
72422;SDS011;60413;55.658;37.498;2023-03-01T06:11:48;7.57;;;2.25;;
72422;SDS011;60413;55.658;37.498;2023-03-01T06:14:15;3.97;;;1.73;;
72422;SDS011;60413;55.658;37.498;2023-03-01T06:16:41;4.10;;;1.40;;
72422;SDS011;60413;55.658;37.498;2023-03-01T06:19:10;3.45;;;1.52;;
72422;SDS011;60413;55.658;37.498;2023-03-01T06:21:40;4.80;;;1.90;;
72422;SDS011;60413;55.658;37.498;2023-03-01T06:24:06;4.00;;;1.30;;
72422;SDS011;60413;55.658;37.498;2023-03-01T06:26:37;3.90;;;1.13;;
72422;SDS011;60413;55.658;37.498;2023-03-01T06:29:09;3.38;;;1.23;;
72422;SDS011;60413;55.658;37.498;2023-03-01T06:31:46;4.53;;;1.40;;
72422;SDS011;60413;55.658;37.498;2023-03-01T06:34:15;5.93;;;1.77;;
72422;SDS011;60413;55.658;37.498;2023-03-01T06:37:21;4.43;;;1.50;;
72422;SDS011;60413;55.658;37.498;2023-03-01T06:50:28;2.25;;;1.20;;
72422;SDS011;60413;55.658;37.498;2023-03-01T06:53:01;4.95;;;1.48;;
72422;SDS011;60413;55.658;37.498;2023-03-01T06:55:32;3.28;;;1.42;;
72422;SDS011;60413;55.658;37.498;2023-03-01T06:58:25;7.50;;;1.73;;
72422;SDS011;60413;55.658;37.498;2023-03-01T07:01:06;3.97;;;1.55;;
72422;SDS011;60413;55.658;37.498;2023-03-01T07:07:13;4.28;;;1.40;;
72422;SDS011;60413;55.658;37.498;2023-03-01T07:13:14;3.90;;;1.75;;
72422;SDS011;60413;55.658;37.498;2023-03-01T07:19:00;3.72;;;1.17;;
72422;SDS011;60413;55.658;37.498;2023-03-01T07:24:31;4.57;;;1.25;;
72422;SDS011;60413;55.658;37.498;2023-03-01T07:29:47;5.05;;;1.77;;
72422;SDS011;60413;55.658;37.498;2023-03-01T07:32:21;5.43;;;1.27;;
72422;SDS011;60413;55.658;37.498;2023-03-01T07:34:53;22.00;;;2.05;;
72422;SDS011;60413;55.658;37.498;2023-03-01T07:40:57;4.15;;;1.52;;
72422;SDS011;60413;55.658;37.498;2023-03-01T07:43:50;3.03;;;1.40;;
72422;SDS011;60413;55.658;37.498;2023-03-01T07:46:48;5.40;;;1.15;;
72422;SDS011;60413;55.658;37.498;2023-03-01T07:49:22;5.80;;;1.48;;
72422;SDS011;60413;55.658;37.498;2023-03-01T07:52:40;6.30;;;1.60;;
72422;SDS011;60413;55.658;37.498;2023-03-01T07:55:08;8.90;;;1.40;;
72422;SDS011;60413;55.658;37.498;2023-03-01T07:57:38;7.10;;;1.35;;
72422;SDS011;60413;55.658;37.498;2023-03-01T08:00:10;3.30;;;1.20;;
72422;SDS011;60413;55.658;37.498;2023-03-01T08:02:43;2.30;;;1.08;;
72422;SDS011;60413;55.658;37.498;2023-03-01T08:05:12;3.70;;;1.17;;
72422;SDS011;60413;55.658;37.498;2023-03-01T08:07:48;1.70;;;1.00;;
72422;SDS011;60413;55.658;37.498;2023-03-01T08:10:40;4.55;;;1.13;;
72422;SDS011;60413;55.658;37.498;2023-03-01T08:13:12;7.05;;;1.98;;
72422;SDS011;60413;55.658;37.498;2023-03-01T08:16:04;3.97;;;1.30;;
72422;SDS011;60413;55.658;37.498;2023-03-01T08:18:44;5.72;;;1.38;;
72422;SDS011;60413;55.658;37.498;2023-03-01T08:21:23;4.93;;;1.50;;
72422;SDS011;60413;55.658;37.498;2023-03-01T08:24:37;4.05;;;1.20;;
72422;SDS011;60413;55.658;37.498;2023-03-01T08:27:17;3.88;;;1.50;;
72422;SDS011;60413;55.658;37.498;2023-03-01T08:30:18;3.17;;;1.13;;
72422;SDS011;60413;55.658;37.498;2023-03-01T08:32:50;2.67;;;1.08;;
72422;SDS011;60413;55.658;37.498;2023-03-01T08:35:25;3.15;;;1.10;;
72422;SDS011;60413;55.658;37.498;2023-03-01T08:38:03;4.13;;;1.17;;
72422;SDS011;60413;55.658;37.498;2023-03-01T08:41:08;5.97;;;1.73;;
72422;SDS011;60413;55.658;37.498;2023-03-01T08:43:37;7.07;;;1.70;;
72422;SDS011;60413;55.658;37.498;2023-03-01T08:46:14;7.35;;;1.58;;
72422;SDS011;60413;55.658;37.498;2023-03-01T08:48:40;5.35;;;1.05;;
72422;SDS011;60413;55.658;37.498;2023-03-01T08:51:15;4.72;;;1.45;;
72422;SDS011;60413;55.658;37.498;2023-03-01T09:00:11;2.83;;;0.80;;
72422;SDS011;60413;55.658;37.498;2023-03-01T09:03:18;3.88;;;1.20;;
72422;SDS011;60413;55.658;37.498;2023-03-01T09:06:15;3.42;;;1.20;;
72422;SDS011;60413;55.658;37.498;2023-03-01T09:08:50;4.45;;;1.30;;
72422;SDS011;60413;55.658;37.498;2023-03-01T09:11:22;4.97;;;2.03;;
72422;SDS011;60413;55.658;37.498;2023-03-01T09:14:20;4.15;;;1.10;;
72422;SDS011;60413;55.658;37.498;2023-03-01T09:16:46;1.98;;;0.80;;
72422;SDS011;60413;55.658;37.498;2023-03-01T09:19:14;3.72;;;1.25;;
72422;SDS011;60413;55.658;37.498;2023-03-01T09:21:44;9.30;;;1.40;;
72422;SDS011;60413;55.658;37.498;2023-03-01T09:24:20;6.88;;;1.30;;
72422;SDS011;60413;55.658;37.498;2023-03-01T09:27:09;4.38;;;1.42;;
72422;SDS011;60413;55.658;37.498;2023-03-01T09:29:39;4.75;;;0.88;;
72422;SDS011;60413;55.658;37.498;2023-03-01T09:32:16;4.40;;;1.80;;
72422;SDS011;60413;55.658;37.498;2023-03-01T09:37:35;4.75;;;1.20;;
72422;SDS011;60413;55.658;37.498;2023-03-01T09:40:06;3.50;;;1.48;;
72422;SDS011;60413;55.658;37.498;2023-03-01T09:42:49;3.10;;;1.00;;
72422;SDS011;60413;55.658;37.498;2023-03-01T09:45:44;6.35;;;1.85;;
72422;SDS011;60413;55.658;37.498;2023-03-01T09:48:26;4.40;;;1.00;;
72422;SDS011;60413;55.658;37.498;2023-03-01T09:54:14;6.32;;;1.30;;
72422;SDS011;60413;55.658;37.498;2023-03-01T09:57:01;3.08;;;0.98;;
72422;SDS011;60413;55.658;37.498;2023-03-01T10:09:24;2.45;;;1.20;;
72422;SDS011;60413;55.658;37.498;2023-03-01T10:12:01;4.30;;;1.30;;
72422;SDS011;60413;55.658;37.498;2023-03-01T10:14:36;2.47;;;0.93;;
72422;SDS011;60413;55.658;37.498;2023-03-01T10:17:17;4.47;;;1.02;;
72422;SDS011;60413;55.658;37.498;2023-03-01T10:19:55;5.53;;;1.30;;
72422;SDS011;60413;55.658;37.498;2023-03-01T10:22:38;3.13;;;0.90;;
72422;SDS011;60413;55.658;37.498;2023-03-01T10:25:17;4.57;;;0.95;;
72422;SDS011;60413;55.658;37.498;2023-03-01T10:28:26;2.58;;;0.80;;
72422;SDS011;60413;55.658;37.498;2023-03-01T10:31:14;4.38;;;1.10;;
72422;SDS011;60413;55.658;37.498;2023-03-01T10:33:56;2.50;;;1.10;;
72422;SDS011;60413;55.658;37.498;2023-03-01T10:36:28;2.10;;;0.98;;
72422;SDS011;60413;55.658;37.498;2023-03-01T10:38:58;5.32;;;1.10;;
72422;SDS011;60413;55.658;37.498;2023-03-01T10:41:34;2.55;;;0.90;;
72422;SDS011;60413;55.658;37.498;2023-03-01T10:47:19;4.13;;;0.90;;
72422;SDS011;60413;55.658;37.498;2023-03-01T10:49:56;4.05;;;0.93;;
72422;SDS011;60413;55.658;37.498;2023-03-01T10:52:36;4.75;;;1.08;;
72422;SDS011;60413;55.658;37.498;2023-03-01T10:57:50;3.97;;;1.27;;
72422;SDS011;60413;55.658;37.498;2023-03-01T11:00:59;4.28;;;1.10;;
72422;SDS011;60413;55.658;37.498;2023-03-01T11:03:36;2.33;;;1.00;;
72422;SDS011;60413;55.658;37.498;2023-03-01T11:06:33;2.50;;;0.85;;
72422;SDS011;60413;55.658;37.498;2023-03-01T11:09:14;4.25;;;1.08;;
72422;SDS011;60413;55.658;37.498;2023-03-01T11:11:57;4.55;;;1.25;;
72422;SDS011;60413;55.658;37.498;2023-03-01T11:14:49;4.93;;;1.40;;
72422;SDS011;60413;55.658;37.498;2023-03-01T11:17:24;3.35;;;0.80;;
72422;SDS011;60413;55.658;37.498;2023-03-01T11:22:50;3.60;;;1.05;;
72422;SDS011;60413;55.658;37.498;2023-03-01T11:28:19;4.25;;;0.85;;
72422;SDS011;60413;55.658;37.498;2023-03-01T11:30:57;5.57;;;1.10;;
72422;SDS011;60413;55.658;37.498;2023-03-01T11:36:34;1.83;;;0.73;;
72422;SDS011;60413;55.658;37.498;2023-03-01T11:51:25;1.55;;;0.80;;
72422;SDS011;60413;55.658;37.498;2023-03-01T12:19:56;2.55;;;1.05;;
72422;SDS011;60413;55.658;37.498;2023-03-01T12:26:21;3.70;;;1.08;;
72422;SDS011;60413;55.658;37.498;2023-03-01T12:39:59;1.27;;;0.95;;
72422;SDS011;60413;55.658;37.498;2023-03-01T12:51:44;2.67;;;0.70;;
72422;SDS011;60413;55.658;37.498;2023-03-01T12:54:30;2.70;;;1.13;;
72422;SDS011;60413;55.658;37.498;2023-03-01T12:57:18;3.95;;;0.88;;
72422;SDS011;60413;55.658;37.498;2023-03-01T13:06:15;3.83;;;0.82;;
72422;SDS011;60413;55.658;37.498;2023-03-01T13:12:41;2.35;;;0.80;;
72422;SDS011;60413;55.658;37.498;2023-03-01T13:31:05;3.08;;;1.00;;
72422;SDS011;60413;55.658;37.498;2023-03-01T13:33:41;2.88;;;0.90;;
72422;SDS011;60413;55.658;37.498;2023-03-01T13:41:58;2.45;;;0.75;;
72422;SDS011;60413;55.658;37.498;2023-03-01T13:44:33;4.18;;;0.90;;
72422;SDS011;60413;55.658;37.498;2023-03-01T13:47:21;1.35;;;0.73;;
72422;SDS011;60413;55.658;37.498;2023-03-01T13:50:01;2.40;;;0.90;;
72422;SDS011;60413;55.658;37.498;2023-03-01T13:52:48;1.30;;;0.70;;
72422;SDS011;60413;55.658;37.498;2023-03-01T13:55:48;4.10;;;0.90;;
72422;SDS011;60413;55.658;37.498;2023-03-01T13:58:24;7.40;;;1.45;;
72422;SDS011;60413;55.658;37.498;2023-03-01T14:01:20;1.25;;;0.80;;
72422;SDS011;60413;55.658;37.498;2023-03-01T14:04:21;2.47;;;1.45;;
72422;SDS011;60413;55.658;37.498;2023-03-01T14:09:52;2.35;;;0.70;;
72422;SDS011;60413;55.658;37.498;2023-03-01T14:18:47;6.20;;;1.25;;
72422;SDS011;60413;55.658;37.498;2023-03-01T14:21:31;4.85;;;1.38;;
72422;SDS011;60413;55.658;37.498;2023-03-01T14:24:20;4.90;;;1.50;;
72422;SDS011;60413;55.658;37.498;2023-03-01T14:27:02;6.22;;;1.40;;
72422;SDS011;60413;55.658;37.498;2023-03-01T14:29:36;4.45;;;1.13;;
72422;SDS011;60413;55.658;37.498;2023-03-01T14:32:32;4.10;;;1.00;;
72422;SDS011;60413;55.658;37.498;2023-03-01T14:38:28;2.40;;;0.90;;
72422;SDS011;60413;55.658;37.498;2023-03-01T14:41:23;3.45;;;0.98;;
72422;SDS011;60413;55.658;37.498;2023-03-01T14:44:01;5.38;;;1.30;;
72422;SDS011;60413;55.658;37.498;2023-03-01T14:46:38;4.38;;;1.33;;
72422;SDS011;60413;55.658;37.498;2023-03-01T14:53:38;2.75;;;0.70;;
72422;SDS011;60413;55.658;37.498;2023-03-01T14:56:12;2.85;;;0.75;;
72422;SDS011;60413;55.658;37.498;2023-03-01T14:58:46;7.30;;;1.35;;
72422;SDS011;60413;55.658;37.498;2023-03-01T15:01:26;3.80;;;1.50;;
72422;SDS011;60413;55.658;37.498;2023-03-01T15:03:54;3.70;;;1.20;;
72422;SDS011;60413;55.658;37.498;2023-03-01T15:06:21;5.05;;;1.17;;
72422;SDS011;60413;55.658;37.498;2023-03-01T15:27:55;3.78;;;1.08;;
72422;SDS011;60413;55.658;37.498;2023-03-01T15:30:25;3.50;;;1.10;;
72422;SDS011;60413;55.658;37.498;2023-03-01T15:33:16;2.72;;;0.90;;
72422;SDS011;60413;55.658;37.498;2023-03-01T15:35:50;2.83;;;1.05;;
72422;SDS011;60413;55.658;37.498;2023-03-01T15:41:04;3.90;;;0.90;;
72422;SDS011;60413;55.658;37.498;2023-03-01T15:44:14;3.45;;;1.02;;
72422;SDS011;60413;55.658;37.498;2023-03-01T15:47:47;3.08;;;1.23;;
72422;SDS011;60413;55.658;37.498;2023-03-01T15:50:22;2.55;;;1.10;;
72422;SDS011;60413;55.658;37.498;2023-03-01T15:57:13;1.83;;;0.90;;
72422;SDS011;60413;55.658;37.498;2023-03-01T15:59:57;1.17;;;0.73;;
72422;SDS011;60413;55.658;37.498;2023-03-01T16:02:30;1.77;;;1.17;;
72422;SDS011;60413;55.658;37.498;2023-03-01T16:05:00;4.22;;;1.25;;
72422;SDS011;60413;55.658;37.498;2023-03-01T16:07:28;1.95;;;0.90;;
72422;SDS011;60413;55.658;37.498;2023-03-01T16:09:58;6.82;;;1.08;;
72422;SDS011;60413;55.658;37.498;2023-03-01T16:12:27;1.42;;;0.70;;
72422;SDS011;60413;55.658;37.498;2023-03-01T16:14:53;2.17;;;0.77;;
72422;SDS011;60413;55.658;37.498;2023-03-01T16:17:25;2.90;;;0.88;;
72422;SDS011;60413;55.658;37.498;2023-03-01T16:23:10;2.67;;;0.88;;
72422;SDS011;60413;55.658;37.498;2023-03-01T16:25:39;7.00;;;1.55;;
72422;SDS011;60413;55.658;37.498;2023-03-01T16:28:06;2.88;;;0.68;;
72422;SDS011;60413;55.658;37.498;2023-03-01T16:30:39;1.85;;;0.90;;
72422;SDS011;60413;55.658;37.498;2023-03-01T16:33:17;3.38;;;1.10;;
72422;SDS011;60413;55.658;37.498;2023-03-01T16:35:56;1.50;;;0.77;;
72422;SDS011;60413;55.658;37.498;2023-03-01T16:38:34;5.45;;;1.00;;
72422;SDS011;60413;55.658;37.498;2023-03-01T16:41:14;5.20;;;0.90;;
72422;SDS011;60413;55.658;37.498;2023-03-01T16:44:11;4.45;;;0.93;;
72422;SDS011;60413;55.658;37.498;2023-03-01T16:47:05;2.55;;;1.00;;
72422;SDS011;60413;55.658;37.498;2023-03-01T16:49:55;1.83;;;0.80;;
72422;SDS011;60413;55.658;37.498;2023-03-01T16:52:53;4.65;;;0.95;;
72422;SDS011;60413;55.658;37.498;2023-03-01T17:46:45;5.45;;;1.27;;
72422;SDS011;60413;55.658;37.498;2023-03-01T17:49:35;2.88;;;1.20;;
72422;SDS011;60413;55.658;37.498;2023-03-01T18:14:49;2.17;;;1.25;;
72422;SDS011;60413;55.658;37.498;2023-03-01T18:34:05;4.00;;;1.10;;
72422;SDS011;60413;55.658;37.498;2023-03-01T18:37:05;2.33;;;0.98;;
72422;SDS011;60413;55.658;37.498;2023-03-01T18:43:21;5.90;;;1.70;;
72422;SDS011;60413;55.658;37.498;2023-03-01T18:49:57;5.55;;;1.00;;
72422;SDS011;60413;55.658;37.498;2023-03-01T18:52:25;7.70;;;1.80;;
72422;SDS011;60413;55.658;37.498;2023-03-01T18:55:25;6.85;;;1.60;;
72422;SDS011;60413;55.658;37.498;2023-03-01T18:57:52;6.25;;;1.60;;
72422;SDS011;60413;55.658;37.498;2023-03-01T19:08:04;5.30;;;1.17;;
72422;SDS011;60413;55.658;37.498;2023-03-01T20:12:55;3.42;;;0.90;;
72422;SDS011;60413;55.658;37.498;2023-03-01T20:16:02;2.30;;;1.02;;
72422;SDS011;60413;55.658;37.498;2023-03-01T20:18:43;4.85;;;1.30;;
72422;SDS011;60413;55.658;37.498;2023-03-01T20:25:21;3.55;;;1.13;;
72422;SDS011;60413;55.658;37.498;2023-03-01T20:27:52;6.47;;;1.30;;
72422;SDS011;60413;55.658;37.498;2023-03-01T20:30:38;2.55;;;1.08;;
72422;SDS011;60413;55.658;37.498;2023-03-01T20:33:07;2.72;;;1.08;;
72422;SDS011;60413;55.658;37.498;2023-03-01T20:40:09;4.43;;;1.55;;
72422;SDS011;60413;55.658;37.498;2023-03-01T20:51:16;4.80;;;1.38;;
72422;SDS011;60413;55.658;37.498;2023-03-01T20:54:15;5.15;;;1.10;;
72422;SDS011;60413;55.658;37.498;2023-03-01T20:57:54;7.20;;;1.83;;
72422;SDS011;60413;55.658;37.498;2023-03-01T21:00:29;4.97;;;1.85;;
72422;SDS011;60413;55.658;37.498;2023-03-01T21:02:58;8.48;;;1.58;;
72422;SDS011;60413;55.658;37.498;2023-03-01T21:05:56;4.80;;;1.30;;
72422;SDS011;60413;55.658;37.498;2023-03-01T21:20:07;5.80;;;1.60;;
72422;SDS011;60413;55.658;37.498;2023-03-01T21:23:07;5.60;;;1.77;;
72422;SDS011;60413;55.658;37.498;2023-03-01T21:25:35;2.67;;;1.48;;
72422;SDS011;60413;55.658;37.498;2023-03-01T21:28:06;3.58;;;1.27;;
72422;SDS011;60413;55.658;37.498;2023-03-01T21:30:36;5.27;;;1.30;;
72422;SDS011;60413;55.658;37.498;2023-03-01T21:33:03;3.90;;;1.40;;
72422;SDS011;60413;55.658;37.498;2023-03-01T21:35:34;2.88;;;1.30;;
72422;SDS011;60413;55.658;37.498;2023-03-01T21:38:14;5.63;;;1.45;;
72422;SDS011;60413;55.658;37.498;2023-03-01T21:41:09;3.08;;;1.13;;
72422;SDS011;60413;55.658;37.498;2023-03-01T21:43:46;7.07;;;1.23;;
72422;SDS011;60413;55.658;37.498;2023-03-01T21:46:37;5.35;;;1.30;;
72422;SDS011;60413;55.658;37.498;2023-03-01T21:49:11;7.57;;;1.90;;
72422;SDS011;60413;55.658;37.498;2023-03-01T21:51:41;8.90;;;2.60;;
72422;SDS011;60413;55.658;37.498;2023-03-01T21:54:14;4.60;;;1.40;;
72422;SDS011;60413;55.658;37.498;2023-03-01T21:56:55;3.38;;;0.98;;
72422;SDS011;60413;55.658;37.498;2023-03-01T21:59:24;7.05;;;1.75;;
72422;SDS011;60413;55.658;37.498;2023-03-01T22:02:03;2.97;;;1.20;;
72422;SDS011;60413;55.658;37.498;2023-03-01T22:04:29;5.40;;;1.10;;
72422;SDS011;60413;55.658;37.498;2023-03-01T22:06:55;5.57;;;1.65;;
72422;SDS011;60413;55.658;37.498;2023-03-01T22:09:24;6.75;;;1.30;;
72422;SDS011;60413;55.658;37.498;2023-03-01T22:11:53;5.43;;;1.30;;
72422;SDS011;60413;55.658;37.498;2023-03-01T22:14:29;5.60;;;1.20;;
72422;SDS011;60413;55.658;37.498;2023-03-01T22:16:56;4.43;;;0.90;;
72422;SDS011;60413;55.658;37.498;2023-03-01T22:19:22;3.40;;;1.10;;
72422;SDS011;60413;55.658;37.498;2023-03-01T22:21:53;1.75;;;0.98;;
72422;SDS011;60413;55.658;37.498;2023-03-01T22:24:23;2.90;;;1.23;;
72422;SDS011;60413;55.658;37.498;2023-03-01T22:26:51;3.15;;;0.95;;